sensor_id;sensor_type;location;lat;lon;timestamp;P1;durP1;ratioP1;P2;durP2;ratioP2
24381;SDS011;12502;50.678;7.172;2022-08-19T00:04:12;14.40;;;11.90;;
24381;SDS011;12502;50.678;7.172;2022-08-19T00:09:16;12.35;;;11.15;;
24381;SDS011;12502;50.678;7.172;2022-08-19T00:14:19;12.05;;;10.85;;
24381;SDS011;12502;50.678;7.172;2022-08-19T00:19:23;12.23;;;11.02;;
24381;SDS011;12502;50.678;7.172;2022-08-19T00:24:25;13.05;;;11.30;;
24381;SDS011;12502;50.678;7.172;2022-08-19T00:29:28;12.98;;;10.80;;
24381;SDS011;12502;50.678;7.172;2022-08-19T00:34:30;12.63;;;11.05;;
24381;SDS011;12502;50.678;7.172;2022-08-19T00:39:32;12.88;;;10.90;;
24381;SDS011;12502;50.678;7.172;2022-08-19T00:44:34;15.30;;;11.57;;
24381;SDS011;12502;50.678;7.172;2022-08-19T00:49:41;12.65;;;11.20;;
24381;SDS011;12502;50.678;7.172;2022-08-19T00:54:51;15.07;;;11.43;;
24381;SDS011;12502;50.678;7.172;2022-08-19T00:59:54;13.23;;;11.98;;
24381;SDS011;12502;50.678;7.172;2022-08-19T01:05:05;11.77;;;10.50;;
24381;SDS011;12502;50.678;7.172;2022-08-19T01:10:12;12.95;;;11.23;;
24381;SDS011;12502;50.678;7.172;2022-08-19T01:15:17;14.10;;;11.52;;
24381;SDS011;12502;50.678;7.172;2022-08-19T01:20:23;12.68;;;11.20;;
24381;SDS011;12502;50.678;7.172;2022-08-19T01:25:32;12.45;;;11.32;;
24381;SDS011;12502;50.678;7.172;2022-08-19T01:30:42;15.63;;;11.15;;
24381;SDS011;12502;50.678;7.172;2022-08-19T01:35:51;12.43;;;11.15;;
24381;SDS011;12502;50.678;7.172;2022-08-19T01:40:53;12.50;;;11.20;;
24381;SDS011;12502;50.678;7.172;2022-08-19T01:45:55;14.30;;;12.25;;
24381;SDS011;12502;50.678;7.172;2022-08-19T01:50:57;12.27;;;11.18;;
24381;SDS011;12502;50.678;7.172;2022-08-19T01:55:58;14.55;;;11.73;;
24381;SDS011;12502;50.678;7.172;2022-08-19T02:01:01;13.85;;;11.52;;
24381;SDS011;12502;50.678;7.172;2022-08-19T02:06:05;13.20;;;11.77;;
24381;SDS011;12502;50.678;7.172;2022-08-19T02:11:07;15.20;;;12.70;;
24381;SDS011;12502;50.678;7.172;2022-08-19T02:16:09;12.95;;;11.68;;
24381;SDS011;12502;50.678;7.172;2022-08-19T02:21:11;13.63;;;12.32;;
24381;SDS011;12502;50.678;7.172;2022-08-19T02:26:14;12.75;;;11.43;;
24381;SDS011;12502;50.678;7.172;2022-08-19T02:31:17;12.48;;;11.23;;
24381;SDS011;12502;50.678;7.172;2022-08-19T02:36:21;12.77;;;11.50;;
24381;SDS011;12502;50.678;7.172;2022-08-19T02:41:26;15.10;;;11.60;;
24381;SDS011;12502;50.678;7.172;2022-08-19T02:46:30;13.85;;;12.45;;
24381;SDS011;12502;50.678;7.172;2022-08-19T02:56:39;14.80;;;12.55;;
24381;SDS011;12502;50.678;7.172;2022-08-19T03:06:44;13.98;;;12.68;;
24381;SDS011;12502;50.678;7.172;2022-08-19T03:11:47;13.05;;;11.77;;
24381;SDS011;12502;50.678;7.172;2022-08-19T03:16:52;14.65;;;13.00;;
24381;SDS011;12502;50.678;7.172;2022-08-19T03:21:54;15.57;;;12.98;;
24381;SDS011;12502;50.678;7.172;2022-08-19T03:26:56;13.80;;;12.00;;
24381;SDS011;12502;50.678;7.172;2022-08-19T03:32:00;13.90;;;12.50;;
24381;SDS011;12502;50.678;7.172;2022-08-19T03:37:10;14.85;;;12.80;;
24381;SDS011;12502;50.678;7.172;2022-08-19T03:42:15;15.45;;;13.68;;
24381;SDS011;12502;50.678;7.172;2022-08-19T03:47:38;15.95;;;14.07;;
24381;SDS011;12502;50.678;7.172;2022-08-19T03:52:39;14.75;;;13.05;;
24381;SDS011;12502;50.678;7.172;2022-08-19T03:57:47;15.15;;;13.40;;
24381;SDS011;12502;50.678;7.172;2022-08-19T04:02:49;14.45;;;12.95;;
24381;SDS011;12502;50.678;7.172;2022-08-19T04:08:01;14.63;;;13.13;;
24381;SDS011;12502;50.678;7.172;2022-08-19T04:13:04;15.50;;;13.90;;
24381;SDS011;12502;50.678;7.172;2022-08-19T04:18:10;15.83;;;13.87;;
24381;SDS011;12502;50.678;7.172;2022-08-19T04:23:12;19.33;;;14.25;;
24381;SDS011;12502;50.678;7.172;2022-08-19T04:28:15;16.55;;;14.52;;
24381;SDS011;12502;50.678;7.172;2022-08-19T04:33:17;16.73;;;14.82;;
24381;SDS011;12502;50.678;7.172;2022-08-19T04:38:28;17.60;;;14.82;;
24381;SDS011;12502;50.678;7.172;2022-08-19T04:43:31;18.40;;;14.85;;
24381;SDS011;12502;50.678;7.172;2022-08-19T04:48:33;15.85;;;14.18;;
24381;SDS011;12502;50.678;7.172;2022-08-19T04:53:42;17.27;;;14.65;;
24381;SDS011;12502;50.678;7.172;2022-08-19T04:58:44;14.88;;;13.35;;
24381;SDS011;12502;50.678;7.172;2022-08-19T05:03:46;14.73;;;13.15;;
24381;SDS011;12502;50.678;7.172;2022-08-19T05:08:48;17.52;;;14.90;;
24381;SDS011;12502;50.678;7.172;2022-08-19T05:13:51;17.33;;;14.55;;
24381;SDS011;12502;50.678;7.172;2022-08-19T05:18:54;18.45;;;14.73;;
24381;SDS011;12502;50.678;7.172;2022-08-19T05:24:15;16.38;;;14.45;;
24381;SDS011;12502;50.678;7.172;2022-08-19T05:29:20;16.05;;;14.45;;
24381;SDS011;12502;50.678;7.172;2022-08-19T05:34:23;19.27;;;15.90;;
24381;SDS011;12502;50.678;7.172;2022-08-19T05:39:28;16.60;;;15.03;;
24381;SDS011;12502;50.678;7.172;2022-08-19T05:44:33;19.92;;;17.65;;
24381;SDS011;12502;50.678;7.172;2022-08-19T05:49:37;19.83;;;16.15;;
24381;SDS011;12502;50.678;7.172;2022-08-19T05:54:40;17.80;;;15.73;;
24381;SDS011;12502;50.678;7.172;2022-08-19T05:59:42;19.90;;;17.60;;
24381;SDS011;12502;50.678;7.172;2022-08-19T06:04:46;22.45;;;17.65;;
24381;SDS011;12502;50.678;7.172;2022-08-19T06:09:48;19.95;;;17.90;;
24381;SDS011;12502;50.678;7.172;2022-08-19T06:15:08;23.90;;;19.80;;
24381;SDS011;12502;50.678;7.172;2022-08-19T06:20:13;29.70;;;21.77;;
24381;SDS011;12502;50.678;7.172;2022-08-19T06:25:16;27.75;;;22.27;;
24381;SDS011;12502;50.678;7.172;2022-08-19T06:30:18;28.20;;;23.08;;
24381;SDS011;12502;50.678;7.172;2022-08-19T06:35:20;27.38;;;24.27;;
24381;SDS011;12502;50.678;7.172;2022-08-19T06:40:22;29.83;;;25.23;;
24381;SDS011;12502;50.678;7.172;2022-08-19T06:45:23;28.85;;;25.38;;
24381;SDS011;12502;50.678;7.172;2022-08-19T06:50:36;29.95;;;25.30;;
24381;SDS011;12502;50.678;7.172;2022-08-19T06:55:41;41.25;;;31.42;;
24381;SDS011;12502;50.678;7.172;2022-08-19T07:00:42;39.63;;;31.30;;
24381;SDS011;12502;50.678;7.172;2022-08-19T07:05:44;42.50;;;33.40;;
24381;SDS011;12502;50.678;7.172;2022-08-19T07:10:47;40.55;;;32.55;;
24381;SDS011;12502;50.678;7.172;2022-08-19T07:15:50;37.40;;;29.85;;
24381;SDS011;12502;50.678;7.172;2022-08-19T07:21:01;41.85;;;33.40;;
24381;SDS011;12502;50.678;7.172;2022-08-19T07:26:14;41.05;;;30.35;;
24381;SDS011;12502;50.678;7.172;2022-08-19T07:31:28;35.65;;;25.73;;
24381;SDS011;12502;50.678;7.172;2022-08-19T07:36:31;43.97;;;31.10;;
24381;SDS011;12502;50.678;7.172;2022-08-19T07:41:34;36.35;;;29.20;;
24381;SDS011;12502;50.678;7.172;2022-08-19T07:46:40;42.05;;;29.67;;
24381;SDS011;12502;50.678;7.172;2022-08-19T07:51:43;30.27;;;25.30;;
24381;SDS011;12502;50.678;7.172;2022-08-19T07:56:49;37.20;;;28.90;;
24381;SDS011;12502;50.678;7.172;2022-08-19T08:01:52;36.60;;;25.83;;
24381;SDS011;12502;50.678;7.172;2022-08-19T08:06:54;31.23;;;23.98;;
24381;SDS011;12502;50.678;7.172;2022-08-19T08:12:18;29.55;;;22.75;;
24381;SDS011;12502;50.678;7.172;2022-08-19T08:17:35;30.50;;;23.92;;
24381;SDS011;12502;50.678;7.172;2022-08-19T08:22:51;32.72;;;23.58;;
24381;SDS011;12502;50.678;7.172;2022-08-19T08:28:11;28.40;;;21.45;;
24381;SDS011;12502;50.678;7.172;2022-08-19T08:33:21;28.70;;;21.02;;
24381;SDS011;12502;50.678;7.172;2022-08-19T08:38:35;25.75;;;20.00;;
24381;SDS011;12502;50.678;7.172;2022-08-19T08:43:44;28.42;;;22.73;;
24381;SDS011;12502;50.678;7.172;2022-08-19T08:54:32;27.55;;;19.30;;
24381;SDS011;12502;50.678;7.172;2022-08-19T08:59:37;22.70;;;17.25;;
24381;SDS011;12502;50.678;7.172;2022-08-19T09:04:42;26.42;;;18.00;;
24381;SDS011;12502;50.678;7.172;2022-08-19T09:09:48;19.17;;;15.77;;
24381;SDS011;12502;50.678;7.172;2022-08-19T09:20:14;23.98;;;18.48;;
24381;SDS011;12502;50.678;7.172;2022-08-19T09:25:21;21.63;;;16.65;;
24381;SDS011;12502;50.678;7.172;2022-08-19T09:30:30;18.25;;;15.90;;
24381;SDS011;12502;50.678;7.172;2022-08-19T09:35:34;19.88;;;15.13;;
24381;SDS011;12502;50.678;7.172;2022-08-19T09:40:54;21.48;;;18.02;;
24381;SDS011;12502;50.678;7.172;2022-08-19T09:45:56;24.70;;;20.33;;
24381;SDS011;12502;50.678;7.172;2022-08-19T09:51:02;24.48;;;18.17;;
24381;SDS011;12502;50.678;7.172;2022-08-19T09:56:12;29.37;;;22.97;;
24381;SDS011;12502;50.678;7.172;2022-08-19T10:01:15;26.33;;;18.73;;
24381;SDS011;12502;50.678;7.172;2022-08-19T10:06:23;24.90;;;19.88;;
24381;SDS011;12502;50.678;7.172;2022-08-19T10:11:46;27.43;;;21.13;;
24381;SDS011;12502;50.678;7.172;2022-08-19T10:16:54;22.90;;;17.70;;
24381;SDS011;12502;50.678;7.172;2022-08-19T10:22:01;25.27;;;20.55;;
24381;SDS011;12502;50.678;7.172;2022-08-19T10:27:04;31.55;;;23.10;;
24381;SDS011;12502;50.678;7.172;2022-08-19T10:37:11;26.83;;;22.10;;
24381;SDS011;12502;50.678;7.172;2022-08-19T10:42:16;26.30;;;20.30;;
24381;SDS011;12502;50.678;7.172;2022-08-19T10:47:19;31.58;;;22.70;;
24381;SDS011;12502;50.678;7.172;2022-08-19T10:52:26;19.25;;;16.45;;
24381;SDS011;12502;50.678;7.172;2022-08-19T10:57:39;17.98;;;15.90;;
24381;SDS011;12502;50.678;7.172;2022-08-19T11:03:01;27.92;;;21.88;;
24381;SDS011;12502;50.678;7.172;2022-08-19T11:08:03;28.60;;;20.92;;
24381;SDS011;12502;50.678;7.172;2022-08-19T11:13:23;22.02;;;19.20;;
24381;SDS011;12502;50.678;7.172;2022-08-19T11:18:25;22.42;;;18.83;;
24381;SDS011;12502;50.678;7.172;2022-08-19T11:23:27;16.55;;;11.35;;
24381;SDS011;12502;50.678;7.172;2022-08-19T11:28:29;13.95;;;11.50;;
24381;SDS011;12502;50.678;7.172;2022-08-19T11:33:31;14.32;;;11.10;;
24381;SDS011;12502;50.678;7.172;2022-08-19T11:38:34;15.13;;;12.55;;
24381;SDS011;12502;50.678;7.172;2022-08-19T11:43:37;15.15;;;10.20;;
24381;SDS011;12502;50.678;7.172;2022-08-19T11:48:41;16.38;;;8.88;;
24381;SDS011;12502;50.678;7.172;2022-08-19T11:53:43;15.40;;;12.10;;
24381;SDS011;12502;50.678;7.172;2022-08-19T11:58:45;10.73;;;9.43;;
24381;SDS011;12502;50.678;7.172;2022-08-19T12:03:48;11.52;;;9.10;;
24381;SDS011;12502;50.678;7.172;2022-08-19T12:13:54;8.85;;;8.05;;
24381;SDS011;12502;50.678;7.172;2022-08-19T12:18:56;14.02;;;8.88;;
24381;SDS011;12502;50.678;7.172;2022-08-19T12:24:01;12.83;;;11.37;;
24381;SDS011;12502;50.678;7.172;2022-08-19T12:29:04;13.32;;;11.93;;
24381;SDS011;12502;50.678;7.172;2022-08-19T12:34:06;16.52;;;10.93;;
24381;SDS011;12502;50.678;7.172;2022-08-19T12:39:09;13.48;;;10.55;;
24381;SDS011;12502;50.678;7.172;2022-08-19T12:44:13;13.73;;;10.77;;
24381;SDS011;12502;50.678;7.172;2022-08-19T12:49:15;15.20;;;11.63;;
24381;SDS011;12502;50.678;7.172;2022-08-19T12:54:37;14.80;;;12.90;;
24381;SDS011;12502;50.678;7.172;2022-08-19T12:59:38;13.43;;;11.68;;
24381;SDS011;12502;50.678;7.172;2022-08-19T13:04:40;17.90;;;12.73;;
24381;SDS011;12502;50.678;7.172;2022-08-19T13:09:42;16.42;;;12.25;;
24381;SDS011;12502;50.678;7.172;2022-08-19T13:14:44;17.17;;;15.40;;
24381;SDS011;12502;50.678;7.172;2022-08-19T13:19:52;14.45;;;13.02;;
24381;SDS011;12502;50.678;7.172;2022-08-19T13:24:53;15.52;;;13.35;;
24381;SDS011;12502;50.678;7.172;2022-08-19T13:29:55;17.83;;;13.45;;
24381;SDS011;12502;50.678;7.172;2022-08-19T13:35:16;14.55;;;13.07;;
24381;SDS011;12502;50.678;7.172;2022-08-19T13:40:19;16.02;;;14.32;;
24381;SDS011;12502;50.678;7.172;2022-08-19T13:45:24;15.77;;;11.63;;
24381;SDS011;12502;50.678;7.172;2022-08-19T13:50:29;14.63;;;11.63;;
24381;SDS011;12502;50.678;7.172;2022-08-19T13:55:32;12.38;;;9.25;;
24381;SDS011;12502;50.678;7.172;2022-08-19T14:00:39;12.88;;;10.23;;
24381;SDS011;12502;50.678;7.172;2022-08-19T14:05:43;11.82;;;10.52;;
24381;SDS011;12502;50.678;7.172;2022-08-19T14:10:47;16.58;;;11.65;;
24381;SDS011;12502;50.678;7.172;2022-08-19T14:15:50;16.75;;;11.43;;
24381;SDS011;12502;50.678;7.172;2022-08-19T14:20:52;12.50;;;10.13;;
24381;SDS011;12502;50.678;7.172;2022-08-19T14:26:02;11.32;;;10.02;;
24381;SDS011;12502;50.678;7.172;2022-08-19T14:31:05;11.18;;;9.73;;
24381;SDS011;12502;50.678;7.172;2022-08-19T14:36:07;12.75;;;10.43;;
24381;SDS011;12502;50.678;7.172;2022-08-19T14:41:16;11.13;;;8.70;;
24381;SDS011;12502;50.678;7.172;2022-08-19T14:46:22;12.13;;;8.70;;
24381;SDS011;12502;50.678;7.172;2022-08-19T14:51:28;12.50;;;10.40;;
24381;SDS011;12502;50.678;7.172;2022-08-19T14:56:30;11.02;;;9.82;;
24381;SDS011;12502;50.678;7.172;2022-08-19T15:01:32;15.45;;;9.35;;
24381;SDS011;12502;50.678;7.172;2022-08-19T15:06:34;11.77;;;8.90;;
24381;SDS011;12502;50.678;7.172;2022-08-19T15:11:36;11.25;;;9.38;;
24381;SDS011;12502;50.678;7.172;2022-08-19T15:16:39;10.63;;;9.30;;
24381;SDS011;12502;50.678;7.172;2022-08-19T15:21:42;11.88;;;8.65;;
24381;SDS011;12502;50.678;7.172;2022-08-19T15:26:44;9.73;;;8.75;;
24381;SDS011;12502;50.678;7.172;2022-08-19T15:31:46;14.15;;;9.25;;
24381;SDS011;12502;50.678;7.172;2022-08-19T15:36:49;9.73;;;8.23;;
24381;SDS011;12502;50.678;7.172;2022-08-19T15:41:51;9.93;;;6.60;;
24381;SDS011;12502;50.678;7.172;2022-08-19T15:46:53;10.75;;;6.35;;
24381;SDS011;12502;50.678;7.172;2022-08-19T15:51:55;8.48;;;5.60;;
24381;SDS011;12502;50.678;7.172;2022-08-19T15:56:58;7.70;;;4.32;;
24381;SDS011;12502;50.678;7.172;2022-08-19T16:02:19;5.15;;;3.70;;
24381;SDS011;12502;50.678;7.172;2022-08-19T16:07:42;8.95;;;3.58;;
24381;SDS011;12502;50.678;7.172;2022-08-19T16:12:44;4.95;;;3.20;;
24381;SDS011;12502;50.678;7.172;2022-08-19T16:17:47;5.53;;;3.42;;
24381;SDS011;12502;50.678;7.172;2022-08-19T16:22:57;5.82;;;3.15;;
24381;SDS011;12502;50.678;7.172;2022-08-19T16:28:00;4.57;;;2.53;;
24381;SDS011;12502;50.678;7.172;2022-08-19T16:33:08;8.43;;;3.38;;
24381;SDS011;12502;50.678;7.172;2022-08-19T16:38:10;7.90;;;3.28;;
24381;SDS011;12502;50.678;7.172;2022-08-19T16:43:12;3.10;;;2.80;;
24381;SDS011;12502;50.678;7.172;2022-08-19T16:48:13;6.63;;;3.13;;
24381;SDS011;12502;50.678;7.172;2022-08-19T16:53:20;6.38;;;3.78;;
24381;SDS011;12502;50.678;7.172;2022-08-19T16:58:32;6.30;;;3.58;;
24381;SDS011;12502;50.678;7.172;2022-08-19T17:03:34;6.53;;;3.10;;
24381;SDS011;12502;50.678;7.172;2022-08-19T17:08:37;8.00;;;2.90;;
24381;SDS011;12502;50.678;7.172;2022-08-19T17:13:39;5.57;;;3.45;;
24381;SDS011;12502;50.678;7.172;2022-08-19T17:18:43;4.45;;;3.10;;
24381;SDS011;12502;50.678;7.172;2022-08-19T17:23:45;6.25;;;2.92;;
24381;SDS011;12502;50.678;7.172;2022-08-19T17:28:50;3.83;;;2.50;;
24381;SDS011;12502;50.678;7.172;2022-08-19T17:33:53;5.40;;;3.25;;
24381;SDS011;12502;50.678;7.172;2022-08-19T17:38:58;9.70;;;2.75;;
24381;SDS011;12502;50.678;7.172;2022-08-19T17:44:02;5.93;;;2.73;;
24381;SDS011;12502;50.678;7.172;2022-08-19T17:49:04;4.72;;;2.47;;
24381;SDS011;12502;50.678;7.172;2022-08-19T17:54:07;8.38;;;2.60;;
24381;SDS011;12502;50.678;7.172;2022-08-19T17:59:11;6.22;;;2.53;;
24381;SDS011;12502;50.678;7.172;2022-08-19T18:04:14;5.10;;;2.90;;
24381;SDS011;12502;50.678;7.172;2022-08-19T18:09:17;6.85;;;2.50;;
24381;SDS011;12502;50.678;7.172;2022-08-19T18:14:21;6.07;;;2.83;;
24381;SDS011;12502;50.678;7.172;2022-08-19T18:19:34;10.45;;;2.70;;
24381;SDS011;12502;50.678;7.172;2022-08-19T18:24:42;9.25;;;2.60;;
24381;SDS011;12502;50.678;7.172;2022-08-19T18:29:46;4.17;;;3.03;;
24381;SDS011;12502;50.678;7.172;2022-08-19T18:34:48;3.38;;;2.60;;
24381;SDS011;12502;50.678;7.172;2022-08-19T18:39:50;3.78;;;2.90;;
24381;SDS011;12502;50.678;7.172;2022-08-19T18:45:10;3.55;;;2.90;;
24381;SDS011;12502;50.678;7.172;2022-08-19T18:50:31;5.25;;;3.08;;
24381;SDS011;12502;50.678;7.172;2022-08-19T18:55:33;6.68;;;3.13;;
24381;SDS011;12502;50.678;7.172;2022-08-19T19:00:35;9.50;;;3.38;;
24381;SDS011;12502;50.678;7.172;2022-08-19T19:05:37;7.15;;;3.15;;
24381;SDS011;12502;50.678;7.172;2022-08-19T19:10:44;4.55;;;3.15;;
24381;SDS011;12502;50.678;7.172;2022-08-19T19:15:47;2.97;;;2.67;;
24381;SDS011;12502;50.678;7.172;2022-08-19T19:20:49;3.53;;;2.80;;
24381;SDS011;12502;50.678;7.172;2022-08-19T19:25:50;6.15;;;2.70;;
24381;SDS011;12502;50.678;7.172;2022-08-19T19:30:53;4.43;;;3.03;;
24381;SDS011;12502;50.678;7.172;2022-08-19T19:35:59;3.83;;;2.92;;
24381;SDS011;12502;50.678;7.172;2022-08-19T19:41:01;7.20;;;3.03;;
24381;SDS011;12502;50.678;7.172;2022-08-19T19:46:04;5.22;;;3.10;;
24381;SDS011;12502;50.678;7.172;2022-08-19T19:51:07;5.55;;;3.20;;
24381;SDS011;12502;50.678;7.172;2022-08-19T19:56:10;3.97;;;2.72;;
24381;SDS011;12502;50.678;7.172;2022-08-19T20:01:13;4.03;;;3.00;;
24381;SDS011;12502;50.678;7.172;2022-08-19T20:06:23;3.58;;;2.80;;
24381;SDS011;12502;50.678;7.172;2022-08-19T20:11:34;5.63;;;3.05;;
24381;SDS011;12502;50.678;7.172;2022-08-19T20:16:40;6.93;;;3.30;;
24381;SDS011;12502;50.678;7.172;2022-08-19T20:21:44;4.38;;;3.05;;
24381;SDS011;12502;50.678;7.172;2022-08-19T20:26:52;5.15;;;2.85;;
24381;SDS011;12502;50.678;7.172;2022-08-19T20:31:54;8.63;;;3.38;;
24381;SDS011;12502;50.678;7.172;2022-08-19T20:36:59;7.82;;;3.10;;
24381;SDS011;12502;50.678;7.172;2022-08-19T20:42:01;2.60;;;2.35;;
24381;SDS011;12502;50.678;7.172;2022-08-19T20:47:03;4.18;;;2.67;;
24381;SDS011;12502;50.678;7.172;2022-08-19T20:52:05;3.30;;;2.60;;
24381;SDS011;12502;50.678;7.172;2022-08-19T20:57:07;6.85;;;2.50;;
24381;SDS011;12502;50.678;7.172;2022-08-19T21:02:09;3.80;;;2.70;;
24381;SDS011;12502;50.678;7.172;2022-08-19T21:07:13;4.60;;;2.63;;
24381;SDS011;12502;50.678;7.172;2022-08-19T21:12:15;2.15;;;1.95;;
24381;SDS011;12502;50.678;7.172;2022-08-19T21:17:17;3.78;;;2.08;;
24381;SDS011;12502;50.678;7.172;2022-08-19T21:22:19;4.53;;;1.90;;
24381;SDS011;12502;50.678;7.172;2022-08-19T21:27:21;2.30;;;2.10;;
24381;SDS011;12502;50.678;7.172;2022-08-19T21:32:23;2.28;;;2.08;;
24381;SDS011;12502;50.678;7.172;2022-08-19T21:37:25;2.00;;;1.80;;
24381;SDS011;12502;50.678;7.172;2022-08-19T21:42:26;1.67;;;1.50;;
24381;SDS011;12502;50.678;7.172;2022-08-19T21:47:28;4.25;;;1.52;;
24381;SDS011;12502;50.678;7.172;2022-08-19T21:52:30;2.38;;;1.40;;
24381;SDS011;12502;50.678;7.172;2022-08-19T21:57:32;1.85;;;1.20;;
24381;SDS011;12502;50.678;7.172;2022-08-19T22:02:35;1.38;;;1.27;;
24381;SDS011;12502;50.678;7.172;2022-08-19T22:07:37;2.90;;;1.37;;
24381;SDS011;12502;50.678;7.172;2022-08-19T22:12:39;1.40;;;0.93;;
24381;SDS011;12502;50.678;7.172;2022-08-19T22:17:51;1.42;;;1.33;;
24381;SDS011;12502;50.678;7.172;2022-08-19T22:22:56;3.20;;;1.20;;
24381;SDS011;12502;50.678;7.172;2022-08-19T22:28:02;1.20;;;1.10;;
24381;SDS011;12502;50.678;7.172;2022-08-19T22:33:07;1.77;;;1.25;;
24381;SDS011;12502;50.678;7.172;2022-08-19T22:38:12;1.38;;;1.27;;
24381;SDS011;12502;50.678;7.172;2022-08-19T22:43:18;1.35;;;1.25;;
24381;SDS011;12502;50.678;7.172;2022-08-19T22:48:24;2.50;;;1.83;;
24381;SDS011;12502;50.678;7.172;2022-08-19T22:53:28;1.73;;;1.20;;
24381;SDS011;12502;50.678;7.172;2022-08-19T22:58:30;1.45;;;1.35;;
24381;SDS011;12502;50.678;7.172;2022-08-19T23:03:33;1.60;;;1.50;;
24381;SDS011;12502;50.678;7.172;2022-08-19T23:08:35;2.85;;;1.48;;
24381;SDS011;12502;50.678;7.172;2022-08-19T23:13:40;3.33;;;1.48;;
24381;SDS011;12502;50.678;7.172;2022-08-19T23:18:42;5.15;;;1.60;;
24381;SDS011;12502;50.678;7.172;2022-08-19T23:23:45;3.58;;;1.90;;
24381;SDS011;12502;50.678;7.172;2022-08-19T23:28:47;2.05;;;1.80;;
24381;SDS011;12502;50.678;7.172;2022-08-19T23:34:07;3.65;;;1.80;;
24381;SDS011;12502;50.678;7.172;2022-08-19T23:39:09;3.33;;;1.80;;
24381;SDS011;12502;50.678;7.172;2022-08-19T23:44:11;2.53;;;1.80;;
24381;SDS011;12502;50.678;7.172;2022-08-19T23:49:15;4.63;;;2.45;;
24381;SDS011;12502;50.678;7.172;2022-08-19T23:54:16;2.25;;;2.00;;
24381;SDS011;12502;50.678;7.172;2022-08-19T23:59:18;3.50;;;2.20;;
